createdAt,value
2022-08-09T00:00:20.304Z,9.30
2022-08-09T00:06:18.347Z,8.15
2022-08-09T00:08:32.198Z,7.90
2022-08-09T00:11:00.908Z,8.77
2022-08-09T00:13:40.819Z,8.65
2022-08-09T00:16:08.343Z,12.52
2022-08-09T00:18:47.016Z,10.45
2022-08-09T00:21:15.293Z,10.52
2022-08-09T00:23:57.598Z,11.25
2022-08-09T00:26:34.120Z,8.10
2022-08-09T00:29:02.356Z,8.57
2022-08-09T00:31:57.577Z,10.82
2022-08-09T00:34:23.095Z,9.15
2022-08-09T00:37:00.196Z,7.18
2022-08-09T00:40:09.229Z,6.63
2022-08-09T00:44:14.997Z,6.70
2022-08-09T00:45:16.507Z,7.28
2022-08-09T00:47:47.574Z,6.00
2022-08-09T00:50:15.360Z,7.00
2022-08-09T00:52:49.125Z,6.85
2022-08-09T00:56:03.069Z,11.82
2022-08-09T00:58:14.705Z,10.82
2022-08-09T01:00:51.614Z,11.18
2022-08-09T01:03:43.185Z,6.32
2022-08-09T01:06:18.437Z,7.32
2022-08-09T01:08:59.763Z,8.32
2022-08-09T01:11:53.093Z,6.20
2022-08-09T01:15:06.026Z,8.25
2022-08-09T01:17:47.056Z,10.25
2022-08-09T01:20:35.982Z,10.73
2022-08-09T01:23:03.081Z,11.35
2022-08-09T01:25:51.122Z,11.95
2022-08-09T01:28:20.578Z,7.43
2022-08-09T01:30:58.231Z,8.15
2022-08-09T01:33:28.647Z,4.30
2022-08-09T01:36:22.105Z,4.10
2022-08-09T01:38:57.283Z,7.90
2022-08-09T01:41:38.148Z,6.38
2022-08-09T01:44:23.350Z,4.60
2022-08-09T01:46:58.108Z,9.40
2022-08-09T01:49:31.993Z,5.30
2022-08-09T01:52:15.122Z,5.80
2022-08-09T01:54:47.387Z,8.40
2022-08-09T01:57:32.230Z,7.50
2022-08-09T02:00:19.134Z,6.25
2022-08-09T02:03:03.298Z,9.30
2022-08-09T02:05:38.032Z,9.60
2022-08-09T02:08:39.694Z,6.93
2022-08-09T02:11:17.245Z,9.77
2022-08-09T02:14:06.316Z,10.70
2022-08-09T02:16:59.133Z,7.68
2022-08-09T02:22:10.792Z,13.88
2022-08-09T02:24:53.385Z,12.43
2022-08-09T02:27:57.600Z,9.35
2022-08-09T02:30:35.976Z,7.07
2022-08-09T02:33:08.009Z,10.82
2022-08-09T02:36:03.315Z,9.18
2022-08-09T02:38:34.897Z,8.20
2022-08-09T02:41:20.071Z,6.43
2022-08-09T02:43:54.596Z,6.90
2022-08-09T02:46:32.056Z,4.32
2022-08-09T02:49:03.398Z,6.90
2022-08-09T02:51:40.795Z,4.55
2022-08-09T02:54:13.758Z,7.78
2022-08-09T02:56:51.308Z,6.65
2022-08-09T02:59:26.394Z,10.68
2022-08-09T03:02:16.841Z,10.15
2022-08-09T03:04:45.196Z,6.22
2022-08-09T03:07:20.100Z,7.53
2022-08-09T03:09:53.986Z,8.20
2022-08-09T03:12:31.149Z,9.13
2022-08-09T03:14:59.018Z,13.18
2022-08-09T03:17:27.455Z,12.07
2022-08-09T03:20:05.291Z,8.18
2022-08-09T03:22:41.400Z,10.43
2022-08-09T03:25:57.896Z,7.53
2022-08-09T03:28:14.616Z,8.00
2022-08-09T03:30:53.082Z,8.30
2022-08-09T03:33:20.633Z,10.85
2022-08-09T03:36:12.491Z,8.85
2022-08-09T03:38:44.471Z,9.57
2022-08-09T03:41:19.124Z,7.70
2022-08-09T03:44:03.977Z,12.57
2022-08-09T03:46:43.225Z,14.80
2022-08-09T03:49:11.085Z,8.52
2022-08-09T03:51:55.032Z,8.40
2022-08-09T03:54:34.618Z,12.93
2022-08-09T03:57:04.210Z,7.53
2022-08-09T03:59:53.568Z,10.85
2022-08-09T04:02:26.940Z,7.38
2022-08-09T04:05:17.281Z,8.93
2022-08-09T04:07:56.984Z,7.20
2022-08-09T04:10:31.963Z,8.02
2022-08-09T04:13:11.479Z,6.72
2022-08-09T04:16:19.632Z,11.02
2022-08-09T04:18:33.776Z,6.00
2022-08-09T04:21:06.994Z,7.43
2022-08-09T04:23:34.563Z,8.95
2022-08-09T04:26:01.686Z,6.90
2022-08-09T04:28:36.555Z,8.38
2022-08-09T04:31:12.952Z,4.80
2022-08-09T04:33:56.637Z,6.68
2022-08-09T04:36:40.417Z,3.10
2022-08-09T04:39:24.040Z,3.63
2022-08-09T04:41:51.537Z,4.72
2022-08-09T04:44:18.714Z,4.65
2022-08-09T04:46:58.603Z,3.22
2022-08-09T04:49:52.662Z,3.78
2022-08-09T04:52:27.701Z,5.72
2022-08-09T04:55:09.919Z,5.88
2022-08-09T04:57:59.449Z,3.83
2022-08-09T05:00:34.190Z,8.43
2022-08-09T05:03:40.635Z,4.63
2022-08-09T05:06:04.439Z,5.28
2022-08-09T05:08:43.923Z,4.88
2022-08-09T05:11:15.462Z,6.35
2022-08-09T05:16:17.568Z,4.72
2022-08-09T05:18:58.663Z,4.25
2022-08-09T05:21:36.647Z,4.15
2022-08-09T05:24:14.620Z,6.57
2022-08-09T05:26:48.212Z,8.18
2022-08-09T05:29:24.109Z,5.75
2022-08-09T05:31:59.498Z,12.88
2022-08-09T05:34:32.721Z,6.88
2022-08-09T05:37:14.208Z,9.35
2022-08-09T05:39:44.113Z,9.60
2022-08-09T05:42:17.966Z,10.02
2022-08-09T05:44:56.255Z,6.30
2022-08-09T05:47:25.279Z,4.28
2022-08-09T05:50:34.913Z,6.53
2022-08-09T05:52:53.587Z,6.60
2022-08-09T05:55:23.337Z,7.95
2022-08-09T05:57:59.256Z,11.93
2022-08-09T06:00:28.778Z,6.00
2022-08-09T06:02:57.653Z,8.18
2022-08-09T06:05:57.143Z,13.98
2022-08-09T06:08:24.909Z,9.73
2022-08-09T06:11:02.348Z,9.48
2022-08-09T06:13:44.146Z,7.03
2022-08-09T06:16:20.239Z,8.13
2022-08-09T06:18:47.462Z,9.13
2022-08-09T06:21:16.331Z,7.22
2022-08-09T17:01:36.852Z,2.58
2022-08-09T17:04:05.410Z,2.60
2022-08-09T17:06:33.874Z,2.22
2022-08-09T17:09:45.116Z,2.78
2022-08-09T17:12:14.143Z,2.00
2022-08-09T17:14:50.611Z,3.05
2022-08-09T17:17:26.908Z,2.08
2022-08-09T17:20:30.202Z,1.75
2022-08-09T17:22:51.835Z,3.65
2022-08-09T17:25:35.658Z,2.58
2022-08-09T17:28:06.189Z,2.00
2022-08-09T17:30:40.848Z,1.60
2022-08-09T17:33:22.268Z,2.67
2022-08-09T17:35:56.841Z,2.75
2022-08-09T17:38:31.968Z,2.85
2022-08-09T17:41:09.038Z,3.30
2022-08-09T17:43:37.323Z,5.28
2022-08-09T17:46:08.681Z,4.15
2022-08-09T17:48:52.107Z,3.63
2022-08-09T17:51:20.261Z,5.18
2022-08-09T17:56:27.068Z,5.20
2022-08-09T17:59:16.818Z,5.82
2022-08-09T18:02:10.886Z,8.80
2022-08-09T18:04:49.804Z,7.32
2022-08-09T18:07:23.302Z,6.65
2022-08-09T18:10:05.096Z,5.60
2022-08-09T18:12:40.439Z,9.18
2022-08-09T18:16:04.867Z,5.30
2022-08-09T18:18:25.776Z,6.50
2022-08-09T18:21:18.909Z,7.97
2022-08-09T18:24:10.591Z,9.55
2022-08-09T18:26:45.917Z,4.57
2022-08-09T18:30:41.927Z,7.25
2022-08-09T18:32:10.963Z,6.60
2022-08-09T18:34:39.040Z,6.32
2022-08-09T18:37:10.162Z,10.38
2022-08-09T18:40:04.051Z,3.60
2022-08-09T18:42:31.550Z,5.22
2022-08-09T18:46:45.045Z,7.95
2022-08-09T18:48:01.200Z,6.13
2022-08-09T18:50:51.373Z,9.45
2022-08-09T18:53:22.343Z,8.32
2022-08-09T18:56:05.256Z,6.35
2022-08-09T18:58:39.086Z,4.28
2022-08-09T19:01:19.837Z,6.68
2022-08-09T19:04:01.035Z,7.00
2022-08-09T19:06:39.695Z,10.93
2022-08-09T19:09:20.575Z,9.85
2022-08-09T19:12:13.755Z,6.82
2022-08-09T19:14:48.201Z,7.35
2022-08-09T19:17:21.810Z,5.93
2022-08-09T19:19:58.696Z,7.65
2022-08-09T19:22:35.183Z,8.13
2022-08-09T19:25:07.672Z,10.45
2022-08-09T19:27:46.872Z,8.65
2022-08-09T19:30:23.040Z,5.65
2022-08-09T19:33:04.378Z,6.78
2022-08-09T19:35:58.298Z,30.67
2022-08-09T19:38:36.182Z,25.77
2022-08-09T19:41:07.412Z,28.33
2022-08-09T19:43:58.246Z,19.88
2022-08-09T19:46:50.942Z,17.25
2022-08-09T19:50:08.840Z,17.63
2022-08-09T19:52:14.409Z,15.07
2022-08-09T19:54:47.844Z,11.43
2022-08-09T19:57:17.649Z,7.95
2022-08-09T20:00:07.922Z,10.88
2022-08-09T20:04:09.784Z,9.32
2022-08-09T20:05:45.924Z,8.98
2022-08-09T20:08:16.212Z,9.82
2022-08-09T20:11:07.677Z,10.00
2022-08-09T20:13:37.043Z,8.35
2022-08-09T20:16:34.222Z,13.13
2022-08-09T20:21:56.038Z,11.38
2022-08-09T20:27:29.219Z,11.85
2022-08-09T20:30:05.933Z,9.35
2022-08-09T20:32:39.214Z,9.43
2022-08-09T20:35:13.849Z,8.40
2022-08-09T20:38:18.556Z,10.10
2022-08-09T20:40:41.083Z,9.70
2022-08-09T20:43:18.731Z,12.77
2022-08-09T20:46:15.581Z,8.85
2022-08-09T20:48:46.333Z,7.35
2022-08-09T20:51:20.776Z,14.50
2022-08-09T20:53:48.823Z,12.57
2022-08-09T20:56:20.850Z,10.27
2022-08-09T20:59:00.059Z,9.20
2022-08-09T21:01:50.500Z,11.90
2022-08-09T21:05:52.069Z,11.68
2022-08-09T21:07:15.035Z,15.60
2022-08-09T21:09:56.168Z,10.80
2022-08-09T21:15:23.365Z,7.97
2022-08-09T21:18:11.943Z,15.07
2022-08-09T21:20:54.085Z,11.85
2022-08-09T21:23:21.889Z,15.63
2022-08-09T21:26:11.045Z,11.43
2022-08-09T21:28:38.341Z,16.20
2022-08-09T21:31:17.959Z,14.65
2022-08-09T21:33:58.066Z,15.88
2022-08-09T21:38:57.912Z,14.82
2022-08-09T21:42:03.746Z,15.35
2022-08-09T21:44:32.763Z,11.38
2022-08-09T21:47:10.035Z,15.93
2022-08-09T21:49:40.379Z,16.83
2022-08-09T21:52:20.252Z,15.27
2022-08-09T21:54:50.829Z,16.67
2022-08-09T21:57:39.311Z,17.73
2022-08-09T22:00:35.908Z,20.25
2022-08-09T22:03:19.102Z,15.00
2022-08-09T22:05:47.567Z,14.77
2022-08-09T22:08:26.921Z,18.85
2022-08-09T22:11:50.167Z,13.27
2022-08-09T22:13:55.966Z,15.85
2022-08-09T22:16:25.947Z,18.65
2022-08-09T22:18:55.074Z,13.70
2022-08-09T22:21:45.223Z,20.23
2022-08-09T22:24:24.129Z,16.10
2022-08-09T22:26:59.099Z,17.10
2022-08-09T22:29:46.399Z,16.70
2022-08-09T22:32:30.127Z,16.98
2022-08-09T22:35:06.334Z,23.65
2022-08-09T22:38:07.044Z,16.25
2022-08-09T22:40:35.185Z,23.33
2022-08-09T22:43:16.865Z,20.00
2022-08-09T22:48:17.101Z,16.00
2022-08-09T22:48:50.279Z,18.27
2022-08-09T22:51:24.120Z,20.52
2022-08-09T22:54:02.122Z,15.45
2022-08-09T22:56:34.047Z,21.13
2022-08-09T22:59:55.302Z,18.42
2022-08-09T23:02:05.757Z,15.75
2022-08-09T23:04:53.607Z,14.93
2022-08-09T23:08:23.283Z,16.50
2022-08-09T23:10:34.773Z,23.25
2022-08-09T23:13:02.105Z,17.63
2022-08-09T23:15:29.781Z,17.98
2022-08-09T23:18:03.968Z,15.82
2022-08-09T23:20:31.860Z,16.85
2022-08-09T23:22:59.004Z,22.98
2022-08-09T23:25:32.985Z,13.98
2022-08-09T23:28:15.995Z,16.05
2022-08-09T23:30:57.958Z,22.13
2022-08-09T23:33:26.096Z,24.40
2022-08-09T23:36:06.391Z,23.13
2022-08-09T23:38:35.161Z,18.60
2022-08-09T23:41:09.864Z,17.17
2022-08-09T23:43:37.354Z,27.13
2022-08-09T23:46:04.535Z,22.33
2022-08-09T23:48:37.922Z,17.67
2022-08-09T23:51:05.231Z,22.35
2022-08-09T23:53:37.876Z,22.42
2022-08-09T23:56:13.011Z,20.75
2022-08-09T23:58:40.206Z,21.95
